createdAt,value
2018-08-12T00:00:23.368Z,98335.56
2018-08-12T00:02:53.169Z,98339.41
2018-08-12T00:05:22.554Z,98338.91
2018-08-12T00:07:51.854Z,98344.60
2018-08-12T00:10:21.452Z,98339.98
2018-08-12T00:12:50.548Z,98339.15
2018-08-12T00:15:21.570Z,98338.35
2018-08-12T00:17:50.801Z,98332.44
2018-08-12T00:20:24.079Z,98335.27
2018-08-12T00:22:53.974Z,98330.05
2018-08-12T00:25:24.183Z,98331.75
2018-08-12T00:27:53.626Z,98336.05
2018-08-12T00:30:22.972Z,98338.41
2018-08-12T00:32:52.321Z,98336.50
2018-08-12T00:35:21.473Z,98334.50
2018-08-12T00:37:50.728Z,98335.73
2018-08-12T00:40:20.083Z,98338.70
2018-08-12T00:42:49.288Z,98333.28
2018-08-12T00:45:19.803Z,98336.24
2018-08-12T00:47:49.723Z,98329.75
2018-08-12T00:50:19.740Z,98333.84
2018-08-12T00:52:49.048Z,98330.31
2018-08-12T00:55:19.151Z,98333.23
2018-08-12T00:57:48.903Z,98337.47
2018-08-12T01:00:21.996Z,98329.23
2018-08-12T01:02:51.232Z,98327.73
2018-08-12T01:05:20.607Z,98329.91
2018-08-12T01:07:50.666Z,98329.87
2018-08-12T01:10:20.622Z,98327.03
2018-08-12T01:12:50.167Z,98335.20
2018-08-12T01:15:21.476Z,98330.55
2018-08-12T01:17:50.491Z,98326.11
2018-08-12T01:20:24.493Z,98319.60
2018-08-12T01:22:53.910Z,98323.59
2018-08-12T01:25:23.677Z,98327.39
2018-08-12T01:27:52.968Z,98319.77
2018-08-12T01:30:22.802Z,98324.92
2018-08-12T01:32:52.143Z,98320.73
2018-08-12T01:35:21.480Z,98319.56
2018-08-12T01:37:50.947Z,98317.30
2018-08-12T01:40:20.544Z,98322.16
2018-08-12T01:42:49.687Z,98326.26
2018-08-12T01:45:20.472Z,98317.20
2018-08-12T01:47:49.695Z,98322.16
2018-08-12T01:50:19.971Z,98319.56
2018-08-12T01:52:49.155Z,98319.67
2018-08-12T01:55:18.384Z,98329.08
2018-08-12T01:57:47.630Z,98322.22
2018-08-12T02:00:19.690Z,98323.76
2018-08-12T02:02:49.371Z,98325.70
2018-08-12T02:05:18.919Z,98327.28
2018-08-12T02:07:48.312Z,98330.17
2018-08-12T02:10:17.771Z,98335.02
2018-08-12T02:12:47.113Z,98336.27
2018-08-12T02:15:16.315Z,98337.90
2018-08-12T02:17:45.663Z,98337.70
2018-08-12T02:20:14.967Z,98329.87
2018-08-12T02:22:44.263Z,98325.89
2018-08-12T02:25:13.525Z,98332.55
2018-08-12T02:27:42.503Z,98333.22
2018-08-12T02:30:12.987Z,98327.69
2018-08-12T02:32:43.113Z,98333.28
2018-08-12T02:35:12.217Z,98334.55
2018-08-12T02:37:41.968Z,98343.56
2018-08-12T02:40:11.558Z,98336.36
2018-08-12T02:42:40.745Z,98336.73
2018-08-12T02:45:13.220Z,98337.14
2018-08-12T02:47:42.631Z,98335.52
2018-08-12T02:50:11.931Z,98333.53
2018-08-12T02:52:41.285Z,98336.09
2018-08-12T02:55:11.207Z,98339.73
2018-08-12T02:57:40.609Z,98336.41
2018-08-12T03:00:11.295Z,98339.73
2018-08-12T03:02:40.536Z,98335.08
2018-08-12T03:05:09.465Z,98335.38
2018-08-12T03:07:38.919Z,98343.56
2018-08-12T03:10:08.869Z,98346.22
2018-08-12T03:12:38.408Z,98349.81
2018-08-12T03:15:08.762Z,98350.58
2018-08-12T03:17:38.410Z,98352.95
2018-08-12T03:20:09.650Z,98346.02
2018-08-12T03:22:38.996Z,98346.39
2018-08-12T03:25:09.291Z,98350.28
2018-08-12T03:27:38.511Z,98349.62
2018-08-12T03:30:09.162Z,98345.05
2018-08-12T03:32:38.422Z,98353.24
2018-08-12T03:35:07.744Z,98348.75
2018-08-12T03:37:36.918Z,98356.83
2018-08-12T03:40:08.389Z,98353.59
2018-08-12T03:42:37.699Z,98353.19
2018-08-12T03:45:07.884Z,98354.73
2018-08-12T03:47:37.217Z,98355.80
2018-08-12T03:50:07.019Z,98355.08
2018-08-12T03:52:36.327Z,98354.14
2018-08-12T03:55:05.793Z,98353.66
2018-08-12T03:57:35.083Z,98356.81
2018-08-12T04:00:05.651Z,98358.31
2018-08-12T04:02:34.999Z,98359.45
2018-08-12T04:05:04.352Z,98358.27
2018-08-12T04:07:33.349Z,98355.71
2018-08-12T04:10:02.652Z,98356.34
2018-08-12T04:12:32.004Z,98353.28
2018-08-12T04:15:01.227Z,98354.46
2018-08-12T04:17:30.457Z,98359.80
2018-08-12T04:19:59.656Z,98363.22
2018-08-12T04:22:28.763Z,98366.04
2018-08-12T04:24:57.998Z,98361.47
2018-08-12T04:27:27.279Z,98366.52
2018-08-12T04:29:56.222Z,98355.53
2018-08-12T04:32:25.155Z,98357.44
2018-08-12T04:34:54.515Z,98360.58
2018-08-12T04:37:23.868Z,98361.05
2018-08-12T04:39:53.251Z,98360.45
2018-08-12T04:42:22.513Z,98361.31
2018-08-12T04:44:51.712Z,98369.75
2018-08-12T04:47:20.779Z,98365.94
2018-08-12T04:49:49.754Z,98380.18
2018-08-12T04:52:18.930Z,98370.45
2018-08-12T04:54:48.098Z,98376.14
2018-08-12T04:57:17.439Z,98380.69
2018-08-12T04:59:46.663Z,98378.99
2018-08-12T05:02:15.739Z,98376.00
2018-08-12T05:04:45.228Z,98377.26
2018-08-12T05:07:14.614Z,98380.69
2018-08-12T05:09:43.576Z,98383.95
2018-08-12T05:12:12.935Z,98380.17
2018-08-12T05:14:42.431Z,98379.67
2018-08-12T05:17:11.768Z,98381.60
2018-08-12T05:19:40.934Z,98377.44
2018-08-12T05:22:10.423Z,98371.52
2018-08-12T05:24:39.562Z,98377.77
2018-08-12T05:27:08.791Z,98377.37
2018-08-12T05:29:38.217Z,98381.19
2018-08-12T05:32:07.727Z,98377.23
2018-08-12T05:34:36.793Z,98378.93
2018-08-12T05:37:06.067Z,98380.05
2018-08-12T05:39:35.413Z,98376.63
2018-08-12T05:42:04.593Z,98386.69
2018-08-12T05:44:34.013Z,98385.57
2018-08-12T05:47:02.883Z,98387.27
2018-08-12T05:49:32.101Z,98385.30
2018-08-12T05:52:01.392Z,98389.41
2018-08-12T05:54:30.702Z,98385.33
2018-08-12T05:57:00.058Z,98386.63
2018-08-12T05:59:29.396Z,98392.18
2018-08-12T06:01:58.695Z,98392.75
2018-08-12T06:04:27.584Z,98391.75
2018-08-12T06:06:56.843Z,98400.42
2018-08-12T06:09:26.124Z,98397.94
2018-08-12T06:11:55.155Z,98400.19
2018-08-12T06:14:24.664Z,98395.63
2018-08-12T06:16:53.981Z,98396.33
2018-08-12T06:19:23.397Z,98398.88
2018-08-12T06:21:52.533Z,98400.66
2018-08-12T06:24:21.819Z,98396.80
2018-08-12T06:26:51.093Z,98401.64
2018-08-12T06:29:20.002Z,98398.49
2018-08-12T06:31:49.020Z,98403.55
2018-08-12T06:34:18.313Z,98402.75
2018-08-12T06:36:47.743Z,98397.56
2018-08-12T06:39:16.895Z,98394.99
2018-08-12T06:41:46.203Z,98402.09
2018-08-12T06:44:15.154Z,98401.88
2018-08-12T06:46:44.465Z,98397.97
2018-08-12T06:49:13.824Z,98400.77
2018-08-12T06:51:43.008Z,98397.25
2018-08-12T06:54:12.334Z,98398.68
2018-08-12T06:56:41.727Z,98396.98
2018-08-12T06:59:11.036Z,98393.95
2018-08-12T07:01:40.223Z,98396.94
2018-08-12T07:04:09.392Z,98401.81
2018-08-12T07:06:38.804Z,98402.77
2018-08-12T07:09:10.048Z,98410.22
2018-08-12T07:11:39.418Z,98399.92
2018-08-12T07:14:08.676Z,98400.10
2018-08-12T07:16:38.220Z,98397.53
2018-08-12T07:19:08.569Z,98401.66
2018-08-12T07:21:37.842Z,98399.23
2018-08-12T07:24:06.993Z,98397.72
2018-08-12T07:26:36.280Z,98402.03
2018-08-12T07:29:05.693Z,98399.03
2018-08-12T07:31:35.183Z,98392.22
2018-08-12T07:34:04.600Z,98389.06
2018-08-12T07:36:33.624Z,98391.77
2018-08-12T07:39:02.915Z,98398.89
2018-08-12T07:41:32.047Z,98393.92
2018-08-12T07:44:01.243Z,98393.72
2018-08-12T07:46:30.564Z,98389.69
2018-08-12T07:48:59.557Z,98394.31
2018-08-12T07:51:28.835Z,98384.86
2018-08-12T07:53:57.979Z,98388.92
2018-08-12T07:56:27.333Z,98388.48
2018-08-12T07:58:56.336Z,98387.91
2018-08-12T08:01:25.651Z,98395.50
2018-08-12T08:03:54.963Z,98392.37
2018-08-12T08:06:24.552Z,98386.59
2018-08-12T08:08:53.639Z,98383.86
2018-08-12T08:11:22.960Z,98383.36
2018-08-12T08:13:52.352Z,98390.53
2018-08-12T08:16:21.571Z,98390.38
2018-08-12T08:18:50.576Z,98382.83
2018-08-12T08:21:19.913Z,98385.55
2018-08-12T08:23:49.307Z,98385.21
2018-08-12T08:26:18.590Z,98383.04
2018-08-12T08:28:47.879Z,98378.13
2018-08-12T08:31:17.252Z,98372.42
2018-08-12T08:33:46.707Z,98370.88
2018-08-12T08:36:16.097Z,98363.52
2018-08-12T08:38:45.404Z,98360.92
2018-08-12T08:41:14.532Z,98362.84
2018-08-12T08:43:43.804Z,98364.97
2018-08-12T08:46:12.995Z,98364.11
2018-08-12T08:48:42.258Z,98364.09
2018-08-12T08:51:11.688Z,98361.18
2018-08-12T08:53:41.039Z,98356.90
2018-08-12T08:56:10.524Z,98354.83
2018-08-12T08:58:39.747Z,98351.27
2018-08-12T09:01:08.844Z,98348.73
2018-08-12T09:03:38.058Z,98344.00
2018-08-12T09:06:07.144Z,98350.80
2018-08-12T09:08:37.447Z,98350.83
2018-08-12T09:11:06.552Z,98356.16
2018-08-12T09:13:35.865Z,98354.71
2018-08-12T09:16:05.290Z,98363.16
2018-08-12T09:18:34.548Z,98360.88
2018-08-12T09:21:04.048Z,98355.06
2018-08-12T09:23:33.355Z,98354.98
2018-08-12T09:26:02.703Z,98364.77
2018-08-12T09:28:31.679Z,98352.28
2018-08-12T09:31:01.039Z,98354.11
2018-08-12T09:33:30.351Z,98365.38
2018-08-12T09:35:59.290Z,98356.56
2018-08-12T09:38:28.368Z,98348.02
2018-08-12T09:40:57.651Z,98350.53
2018-08-12T09:43:26.900Z,98347.02
2018-08-12T09:45:55.919Z,98344.97
2018-08-12T09:48:25.160Z,98342.78
2018-08-12T09:50:54.611Z,98344.52
2018-08-12T09:53:24.167Z,98343.53
2018-08-12T09:55:53.210Z,98340.23
2018-08-12T09:58:22.640Z,98336.31
2018-08-12T10:00:51.790Z,98348.70
2018-08-12T10:03:20.911Z,98341.44
2018-08-12T10:05:50.196Z,98341.64
2018-08-12T10:08:19.607Z,98349.26
2018-08-12T10:10:48.998Z,98338.87
2018-08-12T10:13:18.401Z,98336.00
2018-08-12T10:15:47.785Z,98339.87
2018-08-12T10:18:17.305Z,98332.02
2018-08-12T10:20:47.897Z,98334.55
2018-08-12T10:23:17.352Z,98333.11
2018-08-12T10:25:46.646Z,98329.53
2018-08-12T10:28:15.716Z,98340.36
2018-08-12T10:30:44.731Z,98329.26
2018-08-12T10:33:14.043Z,98326.61
2018-08-12T10:35:43.428Z,98321.59
2018-08-12T10:38:12.771Z,98317.94
2018-08-12T10:40:42.072Z,98314.73
2018-08-12T10:43:11.465Z,98314.09
2018-08-12T10:45:40.628Z,98317.58
2018-08-12T10:48:09.928Z,98312.55
2018-08-12T10:50:39.288Z,98314.78
2018-08-12T10:53:08.596Z,98313.94
2018-08-12T10:55:37.907Z,98306.83
2018-08-12T10:58:07.291Z,98307.45
2018-08-12T11:00:38.154Z,98309.76
2018-08-12T11:03:07.851Z,98318.48
2018-08-12T11:05:37.164Z,98312.17
2018-08-12T11:08:06.623Z,98312.49
2018-08-12T11:10:36.118Z,98311.81
2018-08-12T11:13:05.314Z,98320.31
2018-08-12T11:15:34.664Z,98320.55
2018-08-12T11:18:03.982Z,98321.14
2018-08-12T11:20:33.284Z,98311.98
2018-08-12T11:23:02.763Z,98314.60
2018-08-12T11:25:32.302Z,98319.53
2018-08-12T11:28:01.584Z,98318.49
2018-08-12T11:30:30.920Z,98320.34
2018-08-12T11:33:00.224Z,98314.11
2018-08-12T11:35:29.243Z,98317.84
2018-08-12T11:37:58.313Z,98312.67
2018-08-12T11:40:27.567Z,98304.34
2018-08-12T11:42:56.871Z,98302.84
2018-08-12T11:45:26.211Z,98309.08
2018-08-12T11:47:55.211Z,98315.66
2018-08-12T11:50:24.095Z,98313.19
2018-08-12T11:52:53.333Z,98310.09
2018-08-12T11:55:22.583Z,98306.98
2018-08-12T11:57:51.985Z,98299.02
2018-08-12T12:00:22.124Z,98295.82
2018-08-12T12:02:52.142Z,98294.84
2018-08-12T12:05:21.487Z,98293.93
2018-08-12T12:07:50.661Z,98292.06
2018-08-12T12:10:22.376Z,98280.89
2018-08-12T12:12:52.338Z,98284.22
2018-08-12T12:15:21.719Z,98279.10
2018-08-12T12:17:50.980Z,98276.09
2018-08-12T12:20:21.296Z,98266.53
2018-08-12T12:22:50.648Z,98260.11
2018-08-12T12:25:20.894Z,98260.23
2018-08-12T12:27:49.802Z,98257.34
2018-08-12T12:30:20.503Z,98253.14
2018-08-12T12:32:51.046Z,98256.22
2018-08-12T12:35:20.290Z,98246.97
2018-08-12T12:37:49.671Z,98236.84
2018-08-12T12:40:19.648Z,98246.36
2018-08-12T12:42:49.283Z,98232.29
2018-08-12T12:45:18.459Z,98237.15
2018-08-12T12:47:47.881Z,98237.84
2018-08-12T12:50:19.923Z,98231.83
2018-08-12T12:52:50.008Z,98229.27
2018-08-12T12:55:20.267Z,98222.73
2018-08-12T12:57:49.811Z,98222.67
2018-08-12T13:00:19.914Z,98214.41
2018-08-12T13:02:49.410Z,98221.30
2018-08-12T13:05:19.752Z,98223.38
2018-08-12T13:07:49.488Z,98224.16
2018-08-12T13:10:19.004Z,98212.66
2018-08-12T13:12:48.512Z,98217.73
2018-08-12T13:15:18.262Z,98216.40
2018-08-12T13:17:47.826Z,98213.19
2018-08-12T13:20:19.558Z,98207.41
2018-08-12T13:22:49.599Z,98212.87
2018-08-12T13:25:20.501Z,98208.81
2018-08-12T13:27:50.045Z,98200.70
2018-08-12T13:30:19.882Z,98204.05
2018-08-12T13:32:49.771Z,98206.81
2018-08-12T13:35:18.882Z,98197.06
2018-08-12T13:37:48.038Z,98198.55
2018-08-12T13:40:18.151Z,98191.45
2018-08-12T13:42:47.742Z,98196.23
2018-08-12T13:45:16.983Z,98189.98
2018-08-12T13:47:46.845Z,98184.76
2018-08-12T13:50:20.807Z,98182.48
2018-08-12T13:52:50.726Z,98180.23
2018-08-12T13:55:20.384Z,98170.61
2018-08-12T13:57:50.263Z,98178.51
2018-08-12T14:00:21.337Z,98164.89
2018-08-12T14:02:50.772Z,98159.69
2018-08-12T14:05:20.178Z,98162.25
2018-08-12T14:07:49.828Z,98158.39
2018-08-12T14:10:19.087Z,98156.53
2018-08-12T14:12:48.456Z,98157.64
2018-08-12T14:15:18.899Z,98152.41
2018-08-12T14:17:50.040Z,98144.91
2018-08-12T14:20:20.441Z,98140.77
2018-08-12T14:22:49.979Z,98148.10
2018-08-12T14:25:19.428Z,98141.84
2018-08-12T14:27:48.726Z,98145.59
2018-08-12T14:30:20.091Z,98140.53
2018-08-12T14:32:49.743Z,98142.79
2018-08-12T14:35:19.353Z,98138.08
2018-08-12T14:37:48.604Z,98131.41
2018-08-12T14:40:17.887Z,98131.81
2018-08-12T14:42:46.994Z,98126.82
2018-08-12T14:45:17.024Z,98132.11
2018-08-12T14:47:46.775Z,98132.86
2018-08-12T14:50:18.715Z,98129.96
2018-08-12T14:52:47.987Z,98128.22
2018-08-12T14:55:18.951Z,98124.73
2018-08-12T14:57:48.475Z,98122.83
2018-08-12T15:00:21.665Z,98119.82
2018-08-12T15:02:52.347Z,98117.24
2018-08-12T15:05:21.622Z,98112.78
2018-08-12T15:07:50.833Z,98110.75
2018-08-12T15:10:19.971Z,98112.83
2018-08-12T15:12:49.474Z,98112.51
2018-08-12T15:15:19.060Z,98112.86
2018-08-12T15:17:49.609Z,98104.88
2018-08-12T15:20:18.960Z,98106.05
2018-08-12T15:22:49.529Z,98106.05
2018-08-12T15:25:20.355Z,98102.41
2018-08-12T15:27:49.718Z,98100.05
2018-08-12T15:30:19.125Z,98103.42
2018-08-12T15:32:48.438Z,98107.12
2018-08-12T15:35:17.420Z,98104.09
2018-08-12T15:37:46.815Z,98105.80
2018-08-12T15:40:16.668Z,98104.45
2018-08-12T15:42:46.033Z,98098.66
2018-08-12T15:45:16.398Z,98097.95
2018-08-12T15:47:46.321Z,98096.97
2018-08-12T15:50:15.587Z,98104.41
2018-08-12T15:52:46.030Z,98104.67
2018-08-12T15:55:15.581Z,98101.81
2018-08-12T15:57:44.900Z,98096.77
2018-08-12T16:00:21.822Z,98095.39
2018-08-12T16:02:51.684Z,98097.53
2018-08-12T16:05:20.750Z,98091.41
2018-08-12T16:07:50.328Z,98091.34
2018-08-12T16:10:21.586Z,98092.70
2018-08-12T16:12:51.936Z,98087.30
2018-08-12T16:15:21.594Z,98087.98
2018-08-12T16:17:51.056Z,98093.39
2018-08-12T16:20:20.398Z,98086.00
2018-08-12T16:22:50.000Z,98096.33
2018-08-12T16:25:20.848Z,98093.33
2018-08-12T16:27:50.608Z,98100.41
2018-08-12T16:30:20.330Z,98094.56
2018-08-12T16:32:49.620Z,98093.22
2018-08-12T16:35:19.104Z,98098.25
2018-08-12T16:37:48.683Z,98091.23
2018-08-12T16:40:19.360Z,98095.58
2018-08-12T16:42:48.867Z,98088.91
2018-08-12T16:45:18.878Z,98089.03
2018-08-12T16:47:48.487Z,98086.41
2018-08-12T16:50:17.687Z,98090.37
2018-08-12T16:52:47.139Z,98092.17
2018-08-12T16:55:17.986Z,98088.13
2018-08-12T16:57:47.786Z,98093.48
2018-08-12T17:00:19.763Z,98094.40
2018-08-12T17:02:49.099Z,98088.23
2018-08-12T17:05:22.809Z,98085.97
2018-08-12T17:07:52.369Z,98086.17
2018-08-12T17:10:22.057Z,98088.04
2018-08-12T17:12:51.294Z,98088.39
2018-08-12T17:15:21.824Z,98090.30
2018-08-12T17:17:51.557Z,98090.73
2018-08-12T17:20:21.862Z,98090.23
2018-08-12T17:22:51.267Z,98087.66
2018-08-12T17:25:20.399Z,98092.31
2018-08-12T17:27:49.437Z,98095.61
2018-08-12T17:30:19.014Z,98096.77
2018-08-12T17:32:48.564Z,98100.99
2018-08-12T17:35:17.665Z,98097.24
2018-08-12T17:37:46.959Z,98099.67
2018-08-12T17:40:16.743Z,98109.83
2018-08-12T17:42:46.202Z,98108.17
2018-08-12T17:45:15.413Z,98106.11
2018-08-12T17:47:44.952Z,98104.91
2018-08-12T17:50:16.036Z,98109.32
2018-08-12T17:52:45.562Z,98113.30
2018-08-12T17:55:14.847Z,98111.23
2018-08-12T17:57:44.159Z,98116.16
2018-08-12T18:00:16.470Z,98122.04
2018-08-12T18:02:45.931Z,98124.67
2018-08-12T18:05:15.429Z,98117.38
2018-08-12T18:07:44.779Z,98123.95
2018-08-12T18:10:14.037Z,98124.11
2018-08-12T18:12:43.281Z,98127.84
2018-08-12T18:15:13.048Z,98127.08
2018-08-12T18:17:42.967Z,98136.40
2018-08-12T18:20:12.460Z,98126.13
2018-08-12T18:22:41.591Z,98129.02
2018-08-12T18:25:11.736Z,98125.98
2018-08-12T18:27:41.013Z,98128.67
2018-08-12T18:30:12.239Z,98130.22
2018-08-12T18:32:41.576Z,98131.65
2018-08-12T18:35:11.488Z,98132.70
2018-08-12T18:37:40.951Z,98137.59
2018-08-12T18:40:11.127Z,98144.27
2018-08-12T18:42:40.266Z,98140.95
2018-08-12T18:45:09.546Z,98143.04
2018-08-12T18:47:38.966Z,98146.77
2018-08-12T18:50:09.480Z,98155.30
2018-08-12T18:52:38.866Z,98159.47
2018-08-12T18:55:09.773Z,98165.83
2018-08-12T18:57:38.847Z,98165.17
2018-08-12T19:00:09.792Z,98165.11
2018-08-12T19:02:39.227Z,98167.95
2018-08-12T19:05:09.519Z,98164.65
2018-08-12T19:07:38.623Z,98169.69
2018-08-12T19:10:08.847Z,98170.07
2018-08-12T19:12:38.063Z,98169.66
2018-08-12T19:15:08.766Z,98173.00
2018-08-12T19:17:38.055Z,98163.77
2018-08-12T19:20:08.243Z,98166.24
2018-08-12T19:22:37.994Z,98172.05
2018-08-12T19:25:08.036Z,98166.81
2018-08-12T19:27:38.347Z,98169.16
2018-08-12T19:30:11.707Z,98166.81
2018-08-12T19:32:41.065Z,98171.58
2018-08-12T19:35:11.212Z,98162.44
2018-08-12T19:37:40.321Z,98162.35
2018-08-12T19:40:09.979Z,98158.56
2018-08-12T19:42:39.353Z,98158.89
2018-08-12T19:45:09.648Z,98162.39
2018-08-12T19:47:39.062Z,98165.67
2018-08-12T19:50:08.603Z,98166.63
2018-08-12T19:52:37.803Z,98163.80
2018-08-12T19:55:07.878Z,98167.62
2018-08-12T19:57:37.211Z,98160.92
2018-08-12T20:00:08.490Z,98156.20
2018-08-12T20:02:37.778Z,98160.23
2018-08-12T20:05:06.979Z,98159.30
2018-08-12T20:07:36.336Z,98158.63
2018-08-12T20:10:06.753Z,98157.29
2018-08-12T20:12:35.855Z,98161.14
2018-08-12T20:15:05.414Z,98152.91
2018-08-12T20:17:34.360Z,98161.84
2018-08-12T20:20:03.631Z,98154.88
2018-08-12T20:22:32.931Z,98157.42
2018-08-12T20:25:02.298Z,98156.56
2018-08-12T20:27:31.716Z,98161.77
2018-08-12T20:30:01.091Z,98161.95
2018-08-12T20:32:30.381Z,98162.20
2018-08-12T20:34:59.554Z,98152.48
2018-08-12T20:37:28.686Z,98157.23
2018-08-12T20:39:57.906Z,98151.95
2018-08-12T20:42:27.304Z,98152.00
2018-08-12T20:44:56.509Z,98155.48
2018-08-12T20:47:25.844Z,98154.70
2018-08-12T20:49:55.066Z,98156.61
2018-08-12T20:52:24.441Z,98159.59
2018-08-12T20:54:53.527Z,98156.96
2018-08-12T20:57:22.879Z,98159.64
2018-08-12T20:59:51.755Z,98147.56
2018-08-12T21:02:21.111Z,98151.27
2018-08-12T21:04:50.250Z,98161.07
2018-08-12T21:07:19.649Z,98157.66
2018-08-12T21:09:49.098Z,98160.84
2018-08-12T21:12:18.440Z,98162.75
2018-08-12T21:14:47.838Z,98168.84
2018-08-12T21:17:17.100Z,98170.48
2018-08-12T21:19:46.032Z,98177.09
2018-08-12T21:22:15.432Z,98187.17
2018-08-12T21:24:44.451Z,98180.00
2018-08-12T21:27:13.787Z,98181.11
2018-08-12T21:29:43.152Z,98179.23
2018-08-12T21:32:12.235Z,98181.91
2018-08-12T21:34:41.444Z,98194.67
2018-08-12T21:37:10.923Z,98193.02
2018-08-12T21:39:40.388Z,98189.29
2018-08-12T21:42:09.179Z,98190.81
2018-08-12T21:44:38.412Z,98191.42
2018-08-12T21:47:07.703Z,98198.62
2018-08-12T21:49:36.889Z,98195.91
2018-08-12T21:52:06.424Z,98203.42
2018-08-12T21:54:35.724Z,98205.39
2018-08-12T21:57:04.928Z,98207.22
2018-08-12T21:59:33.850Z,98205.52
2018-08-12T22:02:03.162Z,98198.82
2018-08-12T22:04:32.602Z,98206.36
2018-08-12T22:07:01.959Z,98206.78
2018-08-12T22:09:31.298Z,98206.41
2018-08-12T22:12:00.647Z,98206.92
2018-08-12T22:14:29.998Z,98204.09
2018-08-12T22:16:59.027Z,98204.59
2018-08-12T22:19:28.372Z,98209.51
2018-08-12T22:21:57.624Z,98209.03
2018-08-12T22:24:26.982Z,98212.53
2018-08-12T22:26:56.288Z,98201.16
2018-08-12T22:29:25.684Z,98209.34
2018-08-12T22:31:55.083Z,98207.77
2018-08-12T22:34:24.340Z,98203.61
2018-08-12T22:36:53.529Z,98199.57
2018-08-12T22:39:22.687Z,98198.83
2018-08-12T22:41:52.008Z,98198.66
2018-08-12T22:44:21.292Z,98207.61
2018-08-12T22:46:50.543Z,98200.86
2018-08-12T22:49:19.675Z,98205.96
2018-08-12T22:51:48.699Z,98204.38
2018-08-12T22:54:17.976Z,98207.40
2018-08-12T22:56:46.995Z,98200.69
2018-08-12T22:59:16.452Z,98200.05
2018-08-12T23:01:45.400Z,98205.09
2018-08-12T23:04:14.854Z,98202.53
2018-08-12T23:06:44.311Z,98199.30
2018-08-12T23:09:13.755Z,98197.49
2018-08-12T23:11:43.008Z,98199.23
2018-08-12T23:14:12.368Z,98193.78
2018-08-12T23:16:52.556Z,98199.02
2018-08-12T23:19:21.580Z,98191.16
2018-08-12T23:21:50.647Z,98189.34
2018-08-12T23:24:19.706Z,98191.52
2018-08-12T23:26:48.762Z,98190.20
2018-08-12T23:29:18.088Z,98185.73
2018-08-12T23:31:47.383Z,98185.79
2018-08-12T23:34:16.695Z,98181.34
2018-08-12T23:36:46.017Z,98182.30
2018-08-12T23:39:15.288Z,98182.11
2018-08-12T23:41:44.353Z,98176.39
2018-08-12T23:44:13.320Z,98175.80
2018-08-12T23:46:43.018Z,98184.02
2018-08-12T23:49:12.229Z,98182.63
2018-08-12T23:51:41.583Z,98182.79
2018-08-12T23:54:11.118Z,98178.09
2018-08-12T23:56:40.480Z,98183.38
2018-08-12T23:59:09.531Z,98186.59
